Time;durP1;ratioP1;P1;durP2;ratioP2;P2;SDS_P1;SDS_P2;PMS_P1;PMS_P2;Temp;Humidity;BMP_temperature;BMP_pressure;BME280_temperature;BME280_humidity;BME280_pressure;Samples;Min_cycle;Max_cycle;Signal;HPM_P1;HPM_P2
2023/09/19 00:02:04;;;;;;;8.20;5.72;;;;;;;;;;5100716;28;20055;-77
2023/09/19 00:04:52;;;;;;;6.43;5.25;;;;;;;;;;5100851;28;20486;-77
2023/09/19 00:07:37;;;;;;;6.97;5.50;;;;;;;;;;5101368;28;20038;-77
2023/09/19 00:10:24;;;;;;;6.75;5.28;;;;;;;;;;5113373;28;20360;-78
2023/09/19 00:13:13;;;;;;;7.20;5.25;;;;;;;;;;5099674;28;20038;-78
2023/09/19 00:15:58;;;;;;;6.30;5.20;;;;;;;;;;5100170;28;20038;-78
2023/09/19 00:18:44;;;;;;;6.70;5.30;;;;;;;;;;5100119;28;20091;-77
2023/09/19 00:21:31;;;;;;;9.68;5.35;;;;;;;;;;5116500;28;20100;-78
2023/09/19 00:24:17;;;;;;;10.75;6.03;;;;;;;;;;5114225;28;20334;-78
2023/09/19 00:27:03;;;;;;;11.98;6.18;;;;;;;;;;5113978;28;20028;-77
2023/09/19 00:29:48;;;;;;;9.30;5.50;;;;;;;;;;5099915;28;20020;-77
2023/09/19 00:32:34;;;;;;;9.23;5.60;;;;;;;;;;5114006;28;20109;-78
2023/09/19 00:35:27;;;;;;;7.93;6.05;;;;;;;;;;5099150;28;20031;-77
2023/09/19 00:38:15;;;;;;;9.18;6.10;;;;;;;;;;5100199;28;20023;-77
2023/09/19 00:41:01;;;;;;;7.70;6.00;;;;;;;;;;5113395;28;20020;-76
2023/09/19 00:43:47;;;;;;;11.10;6.32;;;;;;;;;;5099511;28;20016;-77
2023/09/19 00:46:33;;;;;;;9.55;6.07;;;;;;;;;;5114102;28;20020;-77
2023/09/19 00:49:22;;;;;;;8.38;6.13;;;;;;;;;;5114730;28;20500;-76
2023/09/19 00:52:10;;;;;;;13.73;6.40;;;;;;;;;;5113389;28;20024;-78
2023/09/19 00:54:56;;;;;;;7.70;5.95;;;;;;;;;;5114149;28;20048;-77
2023/09/19 00:57:43;;;;;;;9.93;6.30;;;;;;;;;;5098579;28;20399;-77
2023/09/19 01:00:29;;;;;;;10.27;6.30;;;;;;;;;;5113982;28;20024;-77
2023/09/19 01:03:14;;;;;;;7.68;6.03;;;;;;;;;;5098604;28;20376;-77
2023/09/19 01:06:03;;;;;;;8.25;6.07;;;;;;;;;;5099715;28;20101;-78
2023/09/19 01:08:49;;;;;;;9.77;6.63;;;;;;;;;;5113922;28;20012;-77
2023/09/19 01:11:42;;;;;;;8.32;6.43;;;;;;;;;;5113466;28;20467;-76
2023/09/19 01:14:42;;;;;;;9.77;6.40;;;;;;;;;;5113365;28;20024;-76
2023/09/19 01:17:30;;;;;;;7.93;6.45;;;;;;;;;;5113721;28;20020;-77
2023/09/19 01:20:31;;;;;;;10.93;6.80;;;;;;;;;;5099136;28;20019;-78
2023/09/19 01:23:21;;;;;;;9.18;6.60;;;;;;;;;;5113479;28;20106;-77
2023/09/19 01:26:15;;;;;;;9.07;6.53;;;;;;;;;;5113296;28;20098;-76
2023/09/19 01:29:21;;;;;;;11.73;6.70;;;;;;;;;;5115155;28;20027;-76
2023/09/19 01:32:09;;;;;;;9.50;6.60;;;;;;;;;;5101556;28;20051;-77
2023/09/19 01:35:05;;;;;;;9.88;7.03;;;;;;;;;;5116794;28;20437;-76
2023/09/19 01:37:53;;;;;;;9.35;6.65;;;;;;;;;;5102875;28;20453;-77
2023/09/19 01:40:41;;;;;;;12.65;7.28;;;;;;;;;;5117033;28;20464;-77
2023/09/19 01:43:30;;;;;;;10.35;7.03;;;;;;;;;;5101560;28;20121;-78
2023/09/19 01:46:19;;;;;;;10.07;6.95;;;;;;;;;;5116907;28;20015;-77
2023/09/19 01:49:13;;;;;;;9.15;7.18;;;;;;;;;;5102698;28;20030;-77
2023/09/19 01:52:16;;;;;;;10.98;6.75;;;;;;;;;;5088057;28;20016;-77
2023/09/19 01:55:07;;;;;;;12.23;7.00;;;;;;;;;;5116668;28;20066;-77
2023/09/19 01:57:58;;;;;;;10.30;7.05;;;;;;;;;;5102009;28;20015;-76
2023/09/19 02:00:46;;;;;;;10.85;7.32;;;;;;;;;;5116729;28;20492;-76
2023/09/19 02:03:33;;;;;;;13.32;8.23;;;;;;;;;;5100780;28;20433;-77
2023/09/19 02:06:19;;;;;;;9.45;7.25;;;;;;;;;;5117535;28;20020;-79
2023/09/19 02:09:04;;;;;;;10.88;7.63;;;;;;;;;;5105776;28;20065;-78
2023/09/19 02:11:50;;;;;;;10.75;7.72;;;;;;;;;;5116394;28;20059;-77
2023/09/19 02:14:36;;;;;;;12.18;7.70;;;;;;;;;;5116415;28;20020;-77
2023/09/19 02:17:21;;;;;;;10.35;7.30;;;;;;;;;;5105055;28;20496;-78
2023/09/19 02:20:10;;;;;;;9.43;7.30;;;;;;;;;;5100556;28;20023;-78
2023/09/19 02:22:55;;;;;;;12.73;7.28;;;;;;;;;;5116188;28;20096;-78
2023/09/19 02:25:43;;;;;;;9.55;7.65;;;;;;;;;;5119171;28;20016;-76
2023/09/19 02:28:30;;;;;;;9.23;7.25;;;;;;;;;;5103210;28;20020;-77
2023/09/19 02:31:16;;;;;;;10.85;7.65;;;;;;;;;;5100915;28;20043;-77
2023/09/19 02:34:02;;;;;;;11.35;7.20;;;;;;;;;;5115028;28;20030;-77
2023/09/19 02:36:47;;;;;;;10.25;7.97;;;;;;;;;;5115123;28;20025;-78
2023/09/19 02:39:33;;;;;;;11.77;7.97;;;;;;;;;;5115901;28;20019;-78
2023/09/19 02:42:19;;;;;;;14.65;8.40;;;;;;;;;;5114961;28;20028;-78
2023/09/19 02:45:05;;;;;;;19.25;7.80;;;;;;;;;;5115608;28;20361;-77
2023/09/19 02:47:51;;;;;;;10.75;8.27;;;;;;;;;;5115614;28;20024;-78
2023/09/19 02:50:37;;;;;;;11.50;7.70;;;;;;;;;;5115360;28;20012;-78
2023/09/19 02:53:25;;;;;;;12.73;7.93;;;;;;;;;;5114337;28;20047;-79
2023/09/19 02:56:13;;;;;;;9.93;7.90;;;;;;;;;;5100153;28;20081;-77
2023/09/19 02:59:00;;;;;;;9.75;7.32;;;;;;;;;;5101482;28;20051;-78
2023/09/19 03:01:48;;;;;;;11.13;7.63;;;;;;;;;;5100840;28;20023;-77
2023/09/19 03:04:35;;;;;;;10.10;7.57;;;;;;;;;;5115953;28;20023;-78
2023/09/19 03:07:20;;;;;;;12.07;8.15;;;;;;;;;;5114758;28;20081;-78
2023/09/19 03:10:07;;;;;;;10.40;8.05;;;;;;;;;;5101879;28;20041;-77
2023/09/19 03:12:53;;;;;;;11.68;7.80;;;;;;;;;;5114726;28;20027;-78
2023/09/19 03:15:41;;;;;;;12.23;8.43;;;;;;;;;;5114925;28;20109;-78
2023/09/19 03:18:29;;;;;;;12.88;8.35;;;;;;;;;;5099424;28;20026;-79
2023/09/19 03:21:15;;;;;;;13.35;8.18;;;;;;;;;;5099910;28;20037;-78
2023/09/19 03:24:00;;;;;;;12.73;8.20;;;;;;;;;;5114632;28;20034;-78
2023/09/19 03:26:46;;;;;;;13.30;8.50;;;;;;;;;;5114067;28;20492;-78
2023/09/19 03:29:32;;;;;;;11.05;8.20;;;;;;;;;;5114407;28;20042;-77
2023/09/19 03:32:18;;;;;;;11.85;7.85;;;;;;;;;;5114503;28;20043;-78
2023/09/19 03:35:05;;;;;;;13.45;8.88;;;;;;;;;;5114515;28;20111;-78
2023/09/19 03:37:52;;;;;;;15.52;8.90;;;;;;;;;;5114242;28;20102;-78
2023/09/19 03:40:38;;;;;;;12.27;8.50;;;;;;;;;;5099619;28;20027;-78
2023/09/19 03:43:23;;;;;;;15.55;9.63;;;;;;;;;;5115509;28;20011;-77
2023/09/19 03:46:09;;;;;;;13.82;9.82;;;;;;;;;;5115455;28;20020;-78
2023/09/19 03:48:55;;;;;;;17.85;9.60;;;;;;;;;;5114717;28;20355;-76
2023/09/19 03:51:41;;;;;;;15.75;9.60;;;;;;;;;;5113211;28;20015;-75
2023/09/19 03:54:26;;;;;;;16.90;10.20;;;;;;;;;;5114146;28;20043;-74
2023/09/19 03:57:15;;;;;;;14.95;9.80;;;;;;;;;;5114172;28;20030;-74
2023/09/19 04:00:01;;;;;;;20.00;10.40;;;;;;;;;;5115081;28;20400;-74
2023/09/19 04:02:51;;;;;;;19.08;11.60;;;;;;;;;;5112745;28;20034;-74
2023/09/19 04:05:37;;;;;;;19.00;10.93;;;;;;;;;;5113300;28;20173;-74
2023/09/19 04:08:22;;;;;;;15.38;10.73;;;;;;;;;;5114839;28;20411;-75
2023/09/19 04:11:08;;;;;;;18.05;10.68;;;;;;;;;;5112830;28;20031;-74
2023/09/19 04:13:54;;;;;;;13.80;9.45;;;;;;;;;;5115085;28;20028;-73
2023/09/19 04:16:39;;;;;;;17.88;10.93;;;;;;;;;;5113918;28;20348;-73
2023/09/19 04:19:25;;;;;;;20.75;11.38;;;;;;;;;;5114226;28;20079;-75
2023/09/19 04:22:11;;;;;;;18.60;11.55;;;;;;;;;;5098378;28;20019;-74
2023/09/19 04:24:57;;;;;;;16.45;11.27;;;;;;;;;;5114421;28;20024;-74
2023/09/19 04:27:44;;;;;;;21.60;11.75;;;;;;;;;;5113965;28;20051;-74
2023/09/19 04:30:29;;;;;;;24.42;13.07;;;;;;;;;;5098426;28;20023;-74
2023/09/19 04:33:15;;;;;;;16.48;11.27;;;;;;;;;;5099422;28;20028;-74
2023/09/19 04:36:00;;;;;;;18.05;11.90;;;;;;;;;;5114658;28;20027;-74
2023/09/19 04:38:46;;;;;;;19.50;12.00;;;;;;;;;;5099935;28;20045;-75
2023/09/19 04:41:31;;;;;;;16.67;12.23;;;;;;;;;;5114621;28;20019;-74
2023/09/19 04:44:18;;;;;;;18.40;12.48;;;;;;;;;;5099584;28;20012;-75
2023/09/19 04:47:03;;;;;;;30.48;11.70;;;;;;;;;;5114194;28;20023;-74
2023/09/19 04:49:49;;;;;;;17.67;10.52;;;;;;;;;;5098017;28;20012;-74
2023/09/19 04:52:35;;;;;;;17.23;10.48;;;;;;;;;;5099207;28;20058;-74
2023/09/19 04:55:20;;;;;;;19.45;10.85;;;;;;;;;;5113058;28;20081;-74
2023/09/19 04:58:06;;;;;;;20.48;12.68;;;;;;;;;;5112606;28;20047;-74
2023/09/19 05:00:52;;;;;;;17.77;11.77;;;;;;;;;;5099535;28;20028;-74
2023/09/19 05:03:38;;;;;;;21.63;12.43;;;;;;;;;;5115015;28;20054;-75
2023/09/19 05:06:23;;;;;;;19.48;12.15;;;;;;;;;;5102551;28;20077;-73
2023/09/19 05:09:09;;;;;;;22.67;11.48;;;;;;;;;;5117800;28;20058;-74
2023/09/19 05:11:56;;;;;;;15.60;10.55;;;;;;;;;;5117172;28;20047;-75
2023/09/19 05:14:42;;;;;;;17.08;11.13;;;;;;;;;;5102947;28;20030;-74
2023/09/19 05:17:31;;;;;;;14.15;10.45;;;;;;;;;;5118938;28;20026;-74
2023/09/19 05:20:18;;;;;;;17.52;10.70;;;;;;;;;;5109313;28;20036;-75
2023/09/19 05:23:07;;;;;;;24.92;11.02;;;;;;;;;;5105551;28;20034;-75
2023/09/19 05:25:54;;;;;;;16.55;9.80;;;;;;;;;;5107941;28;20441;-75
2023/09/19 05:28:40;;;;;;;18.65;10.63;;;;;;;;;;5123049;28;20464;-76
2023/09/19 05:31:25;;;;;;;12.20;9.50;;;;;;;;;;5106309;28;20401;-75
2023/09/19 05:34:11;;;;;;;17.73;9.85;;;;;;;;;;5118666;28;20024;-75
2023/09/19 05:36:57;;;;;;;20.63;10.68;;;;;;;;;;5105250;28;20031;-75
2023/09/19 05:51:22;;;;;;;15.45;10.13;;;;;;;;;;5154365;27;20394;-72
2023/09/19 05:54:08;;;;;;;15.55;9.60;;;;;;;;;;5152357;27;20042;-73
2023/09/19 05:56:53;;;;;;;20.33;9.88;;;;;;;;;;5152170;27;20019;-74
2023/09/19 05:59:39;;;;;;;15.77;8.93;;;;;;;;;;5156942;27;20023;-72
2023/09/19 06:02:29;;;;;;;15.77;9.20;;;;;;;;;;5173544;27;20025;-72
2023/09/19 06:05:15;;;;;;;16.85;9.70;;;;;;;;;;5173432;27;20026;-70
2023/09/19 06:08:05;;;;;;;15.05;8.98;;;;;;;;;;5173364;27;20121;-73
2023/09/19 06:10:52;;;;;;;15.30;9.38;;;;;;;;;;5173177;27;20443;-71
2023/09/19 06:13:39;;;;;;;10.77;8.27;;;;;;;;;;5158241;27;20023;-73
2023/09/19 06:16:25;;;;;;;13.13;7.90;;;;;;;;;;5158539;27;20022;-73
2023/09/19 06:19:11;;;;;;;14.20;9.48;;;;;;;;;;5172951;27;20029;-72
2023/09/19 06:21:59;;;;;;;15.55;8.77;;;;;;;;;;5173408;27;20527;-73
2023/09/19 06:24:46;;;;;;;12.15;8.88;;;;;;;;;;5173925;27;20022;-74
2023/09/19 06:27:32;;;;;;;13.60;8.77;;;;;;;;;;5158244;27;20053;-72
2023/09/19 06:30:18;;;;;;;13.85;8.32;;;;;;;;;;5172109;27;20023;-73
2023/09/19 06:33:04;;;;;;;13.00;8.88;;;;;;;;;;5172865;27;20458;-75
2023/09/19 06:35:52;;;;;;;18.95;8.18;;;;;;;;;;5172293;27;20462;-76
2023/09/19 06:38:39;;;;;;;14.07;8.52;;;;;;;;;;5172782;27;20106;-70
2023/09/19 06:41:24;;;;;;;15.93;10.35;;;;;;;;;;5172483;27;20018;-73
2023/09/19 06:44:10;;;;;;;14.65;8.52;;;;;;;;;;5172562;27;20467;-74
2023/09/19 06:46:55;;;;;;;10.23;7.60;;;;;;;;;;5171908;27;20018;-73
2023/09/19 06:49:43;;;;;;;11.05;6.55;;;;;;;;;;5172308;27;20074;-74
2023/09/19 06:52:29;;;;;;;12.98;6.97;;;;;;;;;;5157755;27;20033;-74
2023/09/19 06:55:16;;;;;;;11.57;6.70;;;;;;;;;;5164848;27;20411;-76
2023/09/19 06:58:01;;;;;;;8.65;5.95;;;;;;;;;;5163381;27;20026;-76
2023/09/19 07:00:47;;;;;;;10.43;5.88;;;;;;;;;;5179292;27;20046;-75
2023/09/19 07:03:33;;;;;;;7.50;6.10;;;;;;;;;;5178278;27;20010;-74
2023/09/19 07:06:19;;;;;;;7.78;5.80;;;;;;;;;;5179532;27;20023;-75
2023/09/19 07:09:04;;;;;;;9.25;7.03;;;;;;;;;;5164487;27;20025;-75
2023/09/19 07:11:51;;;;;;;10.93;6.80;;;;;;;;;;5180926;27;20034;-75
2023/09/19 07:14:36;;;;;;;11.13;7.30;;;;;;;;;;5172221;27;20022;-73
2023/09/19 07:17:23;;;;;;;11.60;6.90;;;;;;;;;;5181088;27;20014;-74
2023/09/19 07:20:10;;;;;;;9.18;6.55;;;;;;;;;;5179525;27;20018;-75
2023/09/19 07:22:55;;;;;;;10.23;7.32;;;;;;;;;;5180726;27;20014;-75
2023/09/19 07:25:41;;;;;;;13.10;7.90;;;;;;;;;;5179635;27;20006;-74
2023/09/19 07:28:28;;;;;;;13.10;7.57;;;;;;;;;;5178259;27;20014;-73
2023/09/19 07:31:14;;;;;;;10.27;7.40;;;;;;;;;;5164709;27;20028;-75
2023/09/19 07:33:59;;;;;;;9.68;7.15;;;;;;;;;;5179168;27;20050;-75
2023/09/19 07:36:47;;;;;;;11.45;7.00;;;;;;;;;;5177862;27;20038;-75
2023/09/19 07:39:33;;;;;;;8.60;5.95;;;;;;;;;;5177964;27;20046;-74
2023/09/19 07:42:19;;;;;;;5.70;4.68;;;;;;;;;;5163418;27;20018;-73
2023/09/19 07:45:05;;;;;;;5.80;4.55;;;;;;;;;;5178128;27;20018;-75
2023/09/19 07:47:51;;;;;;;14.88;5.50;;;;;;;;;;5178787;27;20025;-75
2023/09/19 07:50:36;;;;;;;7.43;4.90;;;;;;;;;;5177258;27;20118;-75
2023/09/19 07:53:22;;;;;;;7.15;4.30;;;;;;;;;;5178322;27;20041;-75
2023/09/19 07:56:09;;;;;;;5.57;4.10;;;;;;;;;;5177976;27;20029;-75
2023/09/19 07:58:54;;;;;;;5.95;4.72;;;;;;;;;;5178092;27;20023;-74
2023/09/19 08:01:40;;;;;;;4.68;3.95;;;;;;;;;;5182141;27;20034;-76
2023/09/19 08:04:26;;;;;;;8.30;4.10;;;;;;;;;;5184836;27;20355;-75
2023/09/19 08:07:13;;;;;;;6.18;3.65;;;;;;;;;;5184895;27;20018;-75
2023/09/19 08:09:59;;;;;;;4.03;3.63;;;;;;;;;;5182692;27;20029;-75
2023/09/19 08:12:48;;;;;;;5.40;4.15;;;;;;;;;;5162695;27;20018;-75
2023/09/19 08:15:34;;;;;;;10.48;4.55;;;;;;;;;;5177692;27;20026;-75
2023/09/19 08:18:22;;;;;;;6.00;3.53;;;;;;;;;;5163274;27;20033;-75
2023/09/19 08:21:10;;;;;;;5.82;3.70;;;;;;;;;;5163849;27;20351;-75
2023/09/19 08:23:57;;;;;;;5.68;3.92;;;;;;;;;;5177355;27;20105;-75
2023/09/19 08:26:44;;;;;;;8.15;4.43;;;;;;;;;;5162364;27;20087;-74
2023/09/19 08:29:30;;;;;;;5.40;3.78;;;;;;;;;;5177268;27;20023;-75
2023/09/19 08:32:18;;;;;;;5.60;3.47;;;;;;;;;;5178142;27;20033;-75
2023/09/19 08:35:04;;;;;;;6.50;3.45;;;;;;;;;;5176879;27;20383;-75
2023/09/19 08:37:50;;;;;;;4.80;3.55;;;;;;;;;;5176370;27;20147;-76
2023/09/19 08:40:39;;;;;;;7.88;3.92;;;;;;;;;;5177272;27;20343;-75
2023/09/19 08:43:25;;;;;;;6.55;3.50;;;;;;;;;;5178352;27;20018;-75
2023/09/19 08:46:14;;;;;;;5.88;3.33;;;;;;;;;;5177886;27;20026;-76
2023/09/19 08:49:04;;;;;;;4.10;3.03;;;;;;;;;;5165517;27;20113;-75
2023/09/19 08:51:53;;;;;;;5.18;3.78;;;;;;;;;;5162214;27;20102;-76
2023/09/19 08:54:40;;;;;;;4.07;3.40;;;;;;;;;;5177042;27;20022;-75
2023/09/19 08:57:29;;;;;;;7.28;3.33;;;;;;;;;;5178346;27;20025;-75
2023/09/19 09:00:17;;;;;;;3.55;2.75;;;;;;;;;;5170482;27;20046;-75
2023/09/19 09:03:03;;;;;;;4.15;2.90;;;;;;;;;;5162502;27;20050;-75
2023/09/19 09:05:50;;;;;;;4.85;3.60;;;;;;;;;;5176873;27;20050;-74
2023/09/19 09:08:36;;;;;;;6.93;3.22;;;;;;;;;;5176264;27;20042;-76
2023/09/19 09:11:24;;;;;;;9.70;3.00;;;;;;;;;;5175946;27;20029;-76
2023/09/19 09:14:11;;;;;;;6.13;3.30;;;;;;;;;;5176047;27;20410;-75
2023/09/19 09:16:58;;;;;;;6.43;3.42;;;;;;;;;;5175282;27;20370;-76
2023/09/19 09:19:44;;;;;;;6.68;3.10;;;;;;;;;;5176373;27;20022;-75
2023/09/19 09:22:31;;;;;;;4.57;2.85;;;;;;;;;;5176647;27;20023;-75
2023/09/19 09:25:18;;;;;;;7.25;3.50;;;;;;;;;;5176505;27;20018;-75
2023/09/19 09:28:03;;;;;;;5.30;3.30;;;;;;;;;;5176885;27;20028;-74
2023/09/19 09:30:50;;;;;;;4.55;3.13;;;;;;;;;;5175504;27;20373;-75
2023/09/19 09:33:36;;;;;;;9.23;3.60;;;;;;;;;;5176297;27;20034;-75
2023/09/19 09:36:41;;;;;;;5.10;2.88;;;;;;;;;;5175173;27;20023;-75
2023/09/19 09:39:31;;;;;;;4.88;2.97;;;;;;;;;;5161443;27;20360;-74
2023/09/19 09:42:46;;;;;;;5.57;3.13;;;;;;;;;;5161391;27;20022;-75
2023/09/19 09:48:31;;;;;;;3.25;2.83;;;;;;;;;;5176590;27;20025;-74
2023/09/19 09:51:30;;;;;;;5.18;2.90;;;;;;;;;;5161326;27;20054;-74
2023/09/19 09:54:17;;;;;;;4.28;3.00;;;;;;;;;;5176696;27;20014;-75
2023/09/19 10:00:21;;;;;;;8.02;3.60;;;;;;;;;;5176195;27;20030;-75
2023/09/19 10:03:21;;;;;;;4.80;3.47;;;;;;;;;;5176498;27;20074;-76
2023/09/19 10:06:18;;;;;;;5.85;3.05;;;;;;;;;;5175613;27;20030;-75
2023/09/19 10:09:14;;;;;;;4.45;3.80;;;;;;;;;;5180011;27;20413;-74
2023/09/19 10:12:08;;;;;;;4.88;3.80;;;;;;;;;;5176241;27;20097;-75
2023/09/19 10:14:58;;;;;;;5.85;3.67;;;;;;;;;;5161635;27;20029;-75
2023/09/19 10:17:44;;;;;;;4.53;3.10;;;;;;;;;;5174819;27;20018;-74
2023/09/19 10:23:27;;;;;;;7.45;3.20;;;;;;;;;;5176279;27;20085;-74
2023/09/19 10:26:17;;;;;;;4.88;3.28;;;;;;;;;;5177179;27;20029;-75
2023/09/19 10:29:07;;;;;;;3.92;3.03;;;;;;;;;;5179200;27;20023;-72
2023/09/19 10:31:53;;;;;;;3.75;3.08;;;;;;;;;;5178870;27;20032;-75
2023/09/19 10:34:41;;;;;;;3.80;2.88;;;;;;;;;;5178639;27;20155;-74
2023/09/19 10:37:27;;;;;;;3.92;2.97;;;;;;;;;;5180252;27;20021;-75
2023/09/19 10:40:15;;;;;;;4.80;3.00;;;;;;;;;;5180033;27;20497;-74
2023/09/19 10:43:03;;;;;;;5.53;3.20;;;;;;;;;;5179149;27;20015;-74
2023/09/19 10:45:52;;;;;;;4.60;3.50;;;;;;;;;;5178516;27;20431;-75
2023/09/19 10:48:38;;;;;;;5.57;3.00;;;;;;;;;;5178280;27;20034;-76
2023/09/19 10:51:28;;;;;;;5.57;3.20;;;;;;;;;;5163500;27;20044;-75
2023/09/19 10:54:15;;;;;;;7.07;3.10;;;;;;;;;;5178558;27;20119;-76
2023/09/19 10:57:05;;;;;;;9.95;3.10;;;;;;;;;;5178349;27;20029;-74
2023/09/19 11:00:21;;;;;;;7.78;3.30;;;;;;;;;;5178662;27;20363;-74
2023/09/19 11:03:18;;;;;;;4.25;3.22;;;;;;;;;;5179350;27;20435;-75
2023/09/19 11:06:17;;;;;;;3.97;3.58;;;;;;;;;;5179346;27;20106;-75
2023/09/19 11:11:55;;;;;;;10.52;3.22;;;;;;;;;;5178348;27;20014;-75
2023/09/19 11:14:41;;;;;;;6.22;3.38;;;;;;;;;;5177632;27;20045;-74
2023/09/19 11:17:31;;;;;;;6.97;3.55;;;;;;;;;;5177551;27;20041;-75
2023/09/19 11:20:24;;;;;;;16.45;3.88;;;;;;;;;;5163152;27;20186;-74
2023/09/19 11:23:13;;;;;;;6.93;3.78;;;;;;;;;;5164068;27;20061;-75
2023/09/19 11:25:59;;;;;;;5.20;3.58;;;;;;;;;;5178516;27;20049;-75
2023/09/19 11:28:44;;;;;;;7.85;3.83;;;;;;;;;;5178080;27;20093;-76
2023/09/19 11:31:41;;;;;;;8.95;3.50;;;;;;;;;;5177704;27;20014;-75
2023/09/19 11:34:35;;;;;;;7.22;3.65;;;;;;;;;;5178528;27;20018;-76
2023/09/19 11:37:21;;;;;;;5.32;3.42;;;;;;;;;;5178576;27;20018;-76
2023/09/19 11:40:16;;;;;;;6.65;3.72;;;;;;;;;;5177888;27;20528;-76
2023/09/19 11:43:23;;;;;;;5.93;3.88;;;;;;;;;;5178334;27;20022;-74
2023/09/19 11:46:09;;;;;;;5.53;3.28;;;;;;;;;;5180780;27;20320;-74
2023/09/19 11:49:04;;;;;;;10.45;4.00;;;;;;;;;;5177351;27;20105;-74
2023/09/19 11:51:51;;;;;;;6.85;3.47;;;;;;;;;;5163765;27;20022;-73
2023/09/19 11:54:40;;;;;;;8.85;3.78;;;;;;;;;;5177175;27;20047;-73
2023/09/19 11:57:25;;;;;;;4.32;3.35;;;;;;;;;;5172426;27;20022;-73
2023/09/19 12:00:17;;;;;;;4.95;3.20;;;;;;;;;;5181991;27;20026;-72
2023/09/19 12:03:06;;;;;;;4.88;3.70;;;;;;;;;;5178773;27;20022;-73
2023/09/19 12:05:52;;;;;;;6.15;3.50;;;;;;;;;;5162536;27;20023;-73
2023/09/19 12:08:39;;;;;;;5.07;3.30;;;;;;;;;;5176391;27;20025;-73
2023/09/19 12:11:28;;;;;;;5.88;3.38;;;;;;;;;;5177011;27;20015;-74
2023/09/19 12:14:21;;;;;;;6.05;3.33;;;;;;;;;;5176563;27;20029;-73
2023/09/19 12:17:07;;;;;;;5.53;3.60;;;;;;;;;;5155915;27;20014;-73
2023/09/19 12:19:53;;;;;;;6.72;3.95;;;;;;;;;;5156069;27;20023;-73
2023/09/19 12:22:46;;;;;;;6.00;3.78;;;;;;;;;;5155590;27;20078;-73
2023/09/19 12:25:47;;;;;;;8.55;3.40;;;;;;;;;;5156502;27;20030;-73
2023/09/19 12:28:42;;;;;;;7.57;3.30;;;;;;;;;;5156683;27;20057;-73
2023/09/19 12:31:27;;;;;;;4.82;3.00;;;;;;;;;;5156405;27;20150;-74
2023/09/19 12:34:21;;;;;;;4.78;3.40;;;;;;;;;;5155393;27;20026;-73
2023/09/19 12:37:22;;;;;;;7.68;3.60;;;;;;;;;;5156199;27;20046;-73
2023/09/19 12:40:17;;;;;;;5.95;3.35;;;;;;;;;;5155048;27;20023;-73
2023/09/19 12:43:04;;;;;;;7.13;3.40;;;;;;;;;;5141691;27;20014;-75
2023/09/19 12:45:50;;;;;;;4.90;3.25;;;;;;;;;;5155664;27;20114;-73
2023/09/19 12:48:37;;;;;;;4.93;3.22;;;;;;;;;;5154895;27;20114;-73
2023/09/19 12:51:25;;;;;;;8.32;3.45;;;;;;;;;;5157661;27;20468;-73
2023/09/19 12:54:11;;;;;;;8.00;3.30;;;;;;;;;;5176144;27;20018;-72
2023/09/19 12:56:58;;;;;;;6.43;3.22;;;;;;;;;;5175899;27;20026;-72
2023/09/19 12:59:43;;;;;;;6.65;4.38;;;;;;;;;;5176615;27;20030;-73
2023/09/19 13:02:30;;;;;;;5.30;3.40;;;;;;;;;;5175963;27;20101;-73
2023/09/19 13:05:16;;;;;;;5.88;2.90;;;;;;;;;;5176560;27;20400;-73
2023/09/19 13:08:18;;;;;;;10.23;3.78;;;;;;;;;;5162137;27;20014;-72
2023/09/19 13:11:21;;;;;;;6.78;3.03;;;;;;;;;;5161249;27;20105;-73
2023/09/19 13:14:18;;;;;;;5.95;3.47;;;;;;;;;;5175053;27;20367;-74
2023/09/19 13:17:14;;;;;;;4.50;2.97;;;;;;;;;;5161774;27;20085;-74
2023/09/19 13:20:02;;;;;;;4.28;2.88;;;;;;;;;;5176122;27;20022;-73
2023/09/19 13:22:51;;;;;;;4.50;3.30;;;;;;;;;;5176069;27;20018;-74
2023/09/19 13:25:39;;;;;;;3.40;2.72;;;;;;;;;;5174815;27;20105;-73
2023/09/19 13:28:26;;;;;;;4.75;3.20;;;;;;;;;;5175311;27;20075;-75
2023/09/19 13:31:12;;;;;;;3.55;2.67;;;;;;;;;;5175335;27;20078;-75
2023/09/19 13:33:57;;;;;;;4.80;3.20;;;;;;;;;;5175863;27;20018;-74
2023/09/19 13:36:43;;;;;;;5.53;3.05;;;;;;;;;;5175159;27;20010;-74
2023/09/19 13:39:29;;;;;;;4.13;2.88;;;;;;;;;;5174892;27;20031;-72
2023/09/19 13:42:15;;;;;;;5.25;3.15;;;;;;;;;;5175252;27;20082;-74
2023/09/19 13:45:01;;;;;;;6.65;3.50;;;;;;;;;;5176400;27;20015;-72
2023/09/19 13:47:47;;;;;;;5.47;3.20;;;;;;;;;;5175529;27;20453;-74
2023/09/19 13:50:34;;;;;;;9.55;3.10;;;;;;;;;;5175524;27;20046;-73
2023/09/19 13:53:20;;;;;;;5.03;3.10;;;;;;;;;;5175248;27;20026;-73
2023/09/19 13:56:06;;;;;;;4.63;3.35;;;;;;;;;;5160441;27;20053;-74
2023/09/19 13:58:53;;;;;;;11.27;3.88;;;;;;;;;;5160892;27;20098;-74
2023/09/19 14:01:39;;;;;;;4.47;3.05;;;;;;;;;;5178287;27;20018;-74
2023/09/19 14:04:25;;;;;;;4.50;3.20;;;;;;;;;;5178754;27;20022;-74
2023/09/19 14:07:10;;;;;;;5.07;3.10;;;;;;;;;;5180321;27;20014;-74
2023/09/19 14:09:56;;;;;;;5.25;3.22;;;;;;;;;;5179797;27;20026;-74
2023/09/19 14:12:44;;;;;;;9.85;3.78;;;;;;;;;;5164430;27;20070;-74
2023/09/19 14:15:30;;;;;;;9.38;3.72;;;;;;;;;;5179518;27;20087;-74
2023/09/19 14:18:16;;;;;;;5.25;2.97;;;;;;;;;;5178619;27;20486;-74
2023/09/19 14:21:05;;;;;;;6.25;3.30;;;;;;;;;;5179312;27;20026;-74
2023/09/19 14:23:50;;;;;;;4.97;3.22;;;;;;;;;;5179975;27;20006;-70
2023/09/19 14:26:36;;;;;;;9.13;3.10;;;;;;;;;;5178335;27;20034;-70
2023/09/19 14:29:21;;;;;;;3.92;2.97;;;;;;;;;;5179256;27;20018;-71
2023/09/19 14:32:07;;;;;;;3.47;3.10;;;;;;;;;;5165036;27;20037;-70
2023/09/19 14:34:53;;;;;;;3.47;3.05;;;;;;;;;;5178996;27;20526;-70
2023/09/19 14:37:39;;;;;;;7.85;3.53;;;;;;;;;;5163458;27;20037;-72
2023/09/19 14:40:25;;;;;;;6.40;3.50;;;;;;;;;;5178836;27;20022;-70
2023/09/19 14:43:11;;;;;;;9.48;3.47;;;;;;;;;;5179006;27;20393;-70
2023/09/19 14:45:59;;;;;;;4.43;3.22;;;;;;;;;;5178387;27;20523;-71
2023/09/19 14:48:48;;;;;;;6.28;3.30;;;;;;;;;;5178199;27;20161;-71
2023/09/19 14:51:35;;;;;;;4.97;3.15;;;;;;;;;;5178368;27;20037;-72
2023/09/19 14:54:21;;;;;;;8.60;3.35;;;;;;;;;;5179620;27;20018;-72
2023/09/19 14:57:08;;;;;;;5.57;3.30;;;;;;;;;;5177977;27;20523;-70
2023/09/19 14:59:54;;;;;;;10.35;3.83;;;;;;;;;;5178021;27;20439;-70
2023/09/19 15:02:44;;;;;;;7.35;3.72;;;;;;;;;;5177949;27;20106;-70
2023/09/19 15:05:30;;;;;;;7.25;3.75;;;;;;;;;;5178954;27;20010;-71
2023/09/19 15:08:16;;;;;;;9.88;4.68;;;;;;;;;;5178302;27;20029;-70
2023/09/19 15:11:05;;;;;;;7.55;3.72;;;;;;;;;;5177818;27;20030;-69
2023/09/19 15:13:51;;;;;;;10.55;4.18;;;;;;;;;;5177339;27;20029;-72
2023/09/19 15:16:37;;;;;;;6.82;4.00;;;;;;;;;;5177582;27;20420;-71
2023/09/19 15:19:23;;;;;;;10.23;4.47;;;;;;;;;;5177970;27;20420;-71
2023/09/19 15:22:12;;;;;;;7.25;4.38;;;;;;;;;;5178233;27;20018;-70
2023/09/19 15:24:58;;;;;;;12.98;4.20;;;;;;;;;;5177169;27;20105;-72
2023/09/19 15:27:45;;;;;;;9.10;4.20;;;;;;;;;;5180153;27;20439;-71
2023/09/19 15:30:30;;;;;;;12.70;5.10;;;;;;;;;;5177643;27;20072;-71
2023/09/19 15:33:17;;;;;;;11.18;4.53;;;;;;;;;;5176505;27;20095;-70
2023/09/19 15:36:09;;;;;;;15.32;4.38;;;;;;;;;;5177594;27;20034;-72
2023/09/19 15:38:56;;;;;;;11.90;4.30;;;;;;;;;;5177002;27;20033;-74
2023/09/19 15:41:44;;;;;;;11.85;4.82;;;;;;;;;;5177300;27;20029;-73
2023/09/19 15:44:30;;;;;;;12.52;4.55;;;;;;;;;;5176481;27;20025;-72
2023/09/19 15:47:16;;;;;;;20.95;5.50;;;;;;;;;;5177068;27;20018;-73
2023/09/19 15:50:02;;;;;;;9.50;5.18;;;;;;;;;;5176577;27;20046;-73
2023/09/19 15:52:53;;;;;;;9.77;4.60;;;;;;;;;;5176579;27;20034;-73
2023/09/19 15:55:39;;;;;;;8.07;4.45;;;;;;;;;;5173275;27;20022;-73
2023/09/19 15:58:25;;;;;;;13.85;4.75;;;;;;;;;;5178156;27;20470;-73
2023/09/19 16:01:11;;;;;;;12.60;4.32;;;;;;;;;;5162212;27;20014;-71
2023/09/19 16:03:57;;;;;;;19.38;5.85;;;;;;;;;;5158113;27;20018;-71
2023/09/19 16:06:42;;;;;;;14.13;5.95;;;;;;;;;;5156512;27;20014;-73
2023/09/19 16:09:28;;;;;;;10.57;5.20;;;;;;;;;;5176703;27;20034;-72
2023/09/19 16:12:14;;;;;;;16.33;5.53;;;;;;;;;;5161282;27;20108;-73
2023/09/19 16:14:59;;;;;;;18.50;5.68;;;;;;;;;;5152080;27;20022;-72
2023/09/19 16:17:46;;;;;;;14.07;5.40;;;;;;;;;;5162952;27;20055;-72
2023/09/19 16:20:33;;;;;;;13.45;5.90;;;;;;;;;;5177891;27;20081;-73
2023/09/19 16:23:19;;;;;;;10.52;5.15;;;;;;;;;;5175817;27;20025;-72
2023/09/19 16:26:05;;;;;;;10.93;5.75;;;;;;;;;;5177256;27;20033;-72
2023/09/19 16:28:52;;;;;;;13.45;5.22;;;;;;;;;;5176782;27;20018;-73
2023/09/19 16:31:38;;;;;;;9.43;5.53;;;;;;;;;;5176698;27;20046;-73
2023/09/19 16:34:24;;;;;;;11.02;5.65;;;;;;;;;;5170183;27;20109;-73
2023/09/19 16:37:09;;;;;;;8.68;5.78;;;;;;;;;;5163344;27;20395;-72
2023/09/19 16:39:55;;;;;;;13.57;5.68;;;;;;;;;;5176149;27;20022;-71
2023/09/19 16:42:41;;;;;;;16.20;5.95;;;;;;;;;;5167536;27;20019;-74
2023/09/19 16:45:26;;;;;;;17.50;8.07;;;;;;;;;;5171201;27;20101;-73
2023/09/19 16:48:12;;;;;;;13.93;6.55;;;;;;;;;;5176598;27;20026;-72
2023/09/19 16:51:04;;;;;;;12.57;6.85;;;;;;;;;;5175691;27;20046;-72
2023/09/19 16:53:52;;;;;;;14.93;7.55;;;;;;;;;;5175738;27;20072;-72
2023/09/19 16:56:38;;;;;;;16.02;7.97;;;;;;;;;;5162284;27;20415;-74
2023/09/19 16:59:24;;;;;;;13.02;7.20;;;;;;;;;;5160898;27;20109;-72
2023/09/19 17:02:10;;;;;;;11.93;7.22;;;;;;;;;;5160910;27;20041;-73